sensor_id;sensor_type;location;lat;lon;timestamp;temperature;humidity
21355;DHT22;10835;50.148;19.760;2023-03-26T00:01:09;19.80;46.60
21355;DHT22;10835;50.148;19.760;2023-03-26T00:03:40;19.30;47.70
21355;DHT22;10835;50.148;19.760;2023-03-26T00:06:12;19.50;48.60
21355;DHT22;10835;50.148;19.760;2023-03-26T00:08:41;19.50;47.90
21355;DHT22;10835;50.148;19.760;2023-03-26T00:11:13;19.70;48.40
21355;DHT22;10835;50.148;19.760;2023-03-26T00:13:42;19.60;48.30
21355;DHT22;10835;50.148;19.760;2023-03-26T00:16:11;19.40;48.50
21355;DHT22;10835;50.148;19.760;2023-03-26T00:18:39;19.00;49.10
21355;DHT22;10835;50.148;19.760;2023-03-26T00:21:12;18.90;49.20
21355;DHT22;10835;50.148;19.760;2023-03-26T00:23:40;18.90;49.60
21355;DHT22;10835;50.148;19.760;2023-03-26T00:26:09;19.70;49.00
21355;DHT22;10835;50.148;19.760;2023-03-26T00:28:41;19.20;49.00
21355;DHT22;10835;50.148;19.760;2023-03-26T00:31:11;19.00;49.30
21355;DHT22;10835;50.148;19.760;2023-03-26T00:33:40;19.10;48.90
21355;DHT22;10835;50.148;19.760;2023-03-26T00:36:11;20.00;48.40
21355;DHT22;10835;50.148;19.760;2023-03-26T00:38:44;20.30;47.60
21355;DHT22;10835;50.148;19.760;2023-03-26T00:41:15;20.90;46.60
21355;DHT22;10835;50.148;19.760;2023-03-26T00:43:53;20.90;46.40
21355;DHT22;10835;50.148;19.760;2023-03-26T00:46:23;21.40;45.70
21355;DHT22;10835;50.148;19.760;2023-03-26T00:48:52;20.90;45.60
21355;DHT22;10835;50.148;19.760;2023-03-26T00:51:20;21.20;45.90
21355;DHT22;10835;50.148;19.760;2023-03-26T00:53:49;20.80;45.70
21355;DHT22;10835;50.148;19.760;2023-03-26T00:56:18;20.90;46.10
21355;DHT22;10835;50.148;19.760;2023-03-26T00:58:47;20.50;46.30
21355;DHT22;10835;50.148;19.760;2023-03-26T01:01:22;20.10;47.20
21355;DHT22;10835;50.148;19.760;2023-03-26T01:03:56;20.00;47.40
21355;DHT22;10835;50.148;19.760;2023-03-26T01:06:36;20.20;47.70
21355;DHT22;10835;50.148;19.760;2023-03-26T01:09:13;19.60;48.00
21355;DHT22;10835;50.148;19.760;2023-03-26T01:11:42;19.70;48.50
21355;DHT22;10835;50.148;19.760;2023-03-26T01:14:13;19.80;47.90
21355;DHT22;10835;50.148;19.760;2023-03-26T01:16:47;19.70;48.30
21355;DHT22;10835;50.148;19.760;2023-03-26T01:19:22;19.20;48.60
21355;DHT22;10835;50.148;19.760;2023-03-26T01:21:52;19.00;49.50
21355;DHT22;10835;50.148;19.760;2023-03-26T01:24:22;18.90;49.90
21355;DHT22;10835;50.148;19.760;2023-03-26T01:27:06;18.10;50.10
21355;DHT22;10835;50.148;19.760;2023-03-26T01:29:42;17.10;52.80
21355;DHT22;10835;50.148;19.760;2023-03-26T01:32:25;16.20;55.80
21355;DHT22;10835;50.148;19.760;2023-03-26T01:35:07;15.90;57.40
21355;DHT22;10835;50.148;19.760;2023-03-26T01:37:46;15.90;57.50
21355;DHT22;10835;50.148;19.760;2023-03-26T01:40:25;16.00;58.00
21355;DHT22;10835;50.148;19.760;2023-03-26T01:43:01;16.30;57.30
21355;DHT22;10835;50.148;19.760;2023-03-26T01:45:35;16.40;57.20
21355;DHT22;10835;50.148;19.760;2023-03-26T01:48:05;17.20;56.70
21355;DHT22;10835;50.148;19.760;2023-03-26T01:50:34;17.40;55.30
21355;DHT22;10835;50.148;19.760;2023-03-26T01:53:03;17.80;54.60
21355;DHT22;10835;50.148;19.760;2023-03-26T01:55:40;18.10;53.90
21355;DHT22;10835;50.148;19.760;2023-03-26T01:58:19;18.40;53.20
21355;DHT22;10835;50.148;19.760;2023-03-26T02:00:56;19.10;52.20
21355;DHT22;10835;50.148;19.760;2023-03-26T02:03:31;18.80;51.30
21355;DHT22;10835;50.148;19.760;2023-03-26T02:06:05;19.50;51.20
21355;DHT22;10835;50.148;19.760;2023-03-26T02:08:38;20.00;50.30
21355;DHT22;10835;50.148;19.760;2023-03-26T02:11:11;20.60;49.30
21355;DHT22;10835;50.148;19.760;2023-03-26T02:13:44;20.70;49.00
21355;DHT22;10835;50.148;19.760;2023-03-26T02:16:14;21.30;48.00
21355;DHT22;10835;50.148;19.760;2023-03-26T02:18:44;21.60;48.00
21355;DHT22;10835;50.148;19.760;2023-03-26T02:21:16;21.90;47.40
21355;DHT22;10835;50.148;19.760;2023-03-26T02:23:47;22.10;46.30
21355;DHT22;10835;50.148;19.760;2023-03-26T02:26:18;22.00;46.10
21355;DHT22;10835;50.148;19.760;2023-03-26T02:28:58;22.40;46.10
21355;DHT22;10835;50.148;19.760;2023-03-26T02:31:27;22.60;45.50
21355;DHT22;10835;50.148;19.760;2023-03-26T02:33:56;22.80;45.30
21355;DHT22;10835;50.148;19.760;2023-03-26T02:36:27;22.90;45.00
21355;DHT22;10835;50.148;19.760;2023-03-26T02:38:59;22.90;44.90
21355;DHT22;10835;50.148;19.760;2023-03-26T02:41:32;23.10;44.80
21355;DHT22;10835;50.148;19.760;2023-03-26T02:44:04;23.10;44.70
21355;DHT22;10835;50.148;19.760;2023-03-26T02:46:51;23.10;44.30
21355;DHT22;10835;50.148;19.760;2023-03-26T02:49:38;23.20;44.50
21355;DHT22;10835;50.148;19.760;2023-03-26T02:52:09;23.20;44.60
21355;DHT22;10835;50.148;19.760;2023-03-26T02:54:37;23.20;44.00
21355;DHT22;10835;50.148;19.760;2023-03-26T02:57:36;23.20;44.20
21355;DHT22;10835;50.148;19.760;2023-03-26T03:00:30;23.10;43.80
21355;DHT22;10835;50.148;19.760;2023-03-26T03:03:19;23.20;43.70
21355;DHT22;10835;50.148;19.760;2023-03-26T03:05:59;22.90;43.60
21355;DHT22;10835;50.148;19.760;2023-03-26T03:08:36;22.70;44.00
21355;DHT22;10835;50.148;19.760;2023-03-26T03:11:33;22.20;44.30
21355;DHT22;10835;50.148;19.760;2023-03-26T03:14:03;22.00;44.90
21355;DHT22;10835;50.148;19.760;2023-03-26T03:16:32;21.60;45.30
21355;DHT22;10835;50.148;19.760;2023-03-26T03:19:07;21.30;45.90
21355;DHT22;10835;50.148;19.760;2023-03-26T03:21:40;21.20;46.20
21355;DHT22;10835;50.148;19.760;2023-03-26T03:24:09;21.10;46.50
21355;DHT22;10835;50.148;19.760;2023-03-26T03:26:43;20.60;46.80
21355;DHT22;10835;50.148;19.760;2023-03-26T03:29:44;20.20;48.10
21355;DHT22;10835;50.148;19.760;2023-03-26T03:32:31;20.10;48.30
21355;DHT22;10835;50.148;19.760;2023-03-26T03:35:03;19.60;48.70
21355;DHT22;10835;50.148;19.760;2023-03-26T03:37:32;19.60;49.20
21355;DHT22;10835;50.148;19.760;2023-03-26T03:40:05;19.40;49.00
21355;DHT22;10835;50.148;19.760;2023-03-26T03:42:37;19.10;49.80
21355;DHT22;10835;50.148;19.760;2023-03-26T03:45:09;19.50;49.90
21355;DHT22;10835;50.148;19.760;2023-03-26T03:47:53;20.00;49.60
21355;DHT22;10835;50.148;19.760;2023-03-26T03:50:29;20.20;49.20
21355;DHT22;10835;50.148;19.760;2023-03-26T03:53:20;20.40;48.60
21355;DHT22;10835;50.148;19.760;2023-03-26T03:55:54;20.20;48.70
21355;DHT22;10835;50.148;19.760;2023-03-26T03:58:34;20.30;48.10
21355;DHT22;10835;50.148;19.760;2023-03-26T04:01:11;20.70;48.70
21355;DHT22;10835;50.148;19.760;2023-03-26T04:04:01;20.90;48.10
21355;DHT22;10835;50.148;19.760;2023-03-26T04:06:55;21.10;48.20
21355;DHT22;10835;50.148;19.760;2023-03-26T04:09:28;21.00;47.70
21355;DHT22;10835;50.148;19.760;2023-03-26T04:12:01;20.40;48.10
21355;DHT22;10835;50.148;19.760;2023-03-26T04:14:38;20.80;48.10
21355;DHT22;10835;50.148;19.760;2023-03-26T04:17:15;21.00;47.70
21355;DHT22;10835;50.148;19.760;2023-03-26T04:19:45;21.50;47.30
21355;DHT22;10835;50.148;19.760;2023-03-26T04:22:15;21.30;46.40
21355;DHT22;10835;50.148;19.760;2023-03-26T04:24:53;21.50;46.70
21355;DHT22;10835;50.148;19.760;2023-03-26T04:27:51;21.60;46.10
21355;DHT22;10835;50.148;19.760;2023-03-26T04:30:50;21.00;47.00
21355;DHT22;10835;50.148;19.760;2023-03-26T04:33:34;20.70;46.80
21355;DHT22;10835;50.148;19.760;2023-03-26T04:36:04;20.60;47.50
21355;DHT22;10835;50.148;19.760;2023-03-26T04:38:39;20.50;47.50
21355;DHT22;10835;50.148;19.760;2023-03-26T04:41:11;20.50;47.90
21355;DHT22;10835;50.148;19.760;2023-03-26T04:44:06;20.70;47.90
21355;DHT22;10835;50.148;19.760;2023-03-26T04:47:00;20.50;47.20
21355;DHT22;10835;50.148;19.760;2023-03-26T04:49:35;20.80;47.10
21355;DHT22;10835;50.148;19.760;2023-03-26T04:52:04;20.50;47.50
21355;DHT22;10835;50.148;19.760;2023-03-26T04:54:51;21.10;47.30
21355;DHT22;10835;50.148;19.760;2023-03-26T04:57:24;20.80;47.00
21355;DHT22;10835;50.148;19.760;2023-03-26T05:00:20;20.50;47.20
21355;DHT22;10835;50.148;19.760;2023-03-26T05:02:56;20.50;47.20
21355;DHT22;10835;50.148;19.760;2023-03-26T05:05:28;20.60;47.50
21355;DHT22;10835;50.148;19.760;2023-03-26T05:07:58;20.50;47.40
21355;DHT22;10835;50.148;19.760;2023-03-26T05:10:26;20.60;47.50
21355;DHT22;10835;50.148;19.760;2023-03-26T05:13:10;20.00;47.70
21355;DHT22;10835;50.148;19.760;2023-03-26T05:15:44;20.30;48.10
21355;DHT22;10835;50.148;19.760;2023-03-26T05:18:19;20.00;47.90
21355;DHT22;10835;50.148;19.760;2023-03-26T05:20:52;20.00;48.70
21355;DHT22;10835;50.148;19.760;2023-03-26T05:23:22;20.00;48.50
21355;DHT22;10835;50.148;19.760;2023-03-26T05:26:07;20.50;48.30
21355;DHT22;10835;50.148;19.760;2023-03-26T05:28:36;20.40;47.30
21355;DHT22;10835;50.148;19.760;2023-03-26T05:31:30;19.80;48.40
21355;DHT22;10835;50.148;19.760;2023-03-26T05:34:00;19.70;48.80
21355;DHT22;10835;50.148;19.760;2023-03-26T05:36:30;20.00;48.60
21355;DHT22;10835;50.148;19.760;2023-03-26T05:39:28;19.90;48.50
21355;DHT22;10835;50.148;19.760;2023-03-26T05:42:11;19.70;48.10
21355;DHT22;10835;50.148;19.760;2023-03-26T05:44:57;19.10;49.60
21355;DHT22;10835;50.148;19.760;2023-03-26T05:47:28;19.30;49.50
21355;DHT22;10835;50.148;19.760;2023-03-26T05:49:57;19.60;49.30
21355;DHT22;10835;50.148;19.760;2023-03-26T05:52:27;19.60;49.50
21355;DHT22;10835;50.148;19.760;2023-03-26T05:55:15;19.60;49.20
21355;DHT22;10835;50.148;19.760;2023-03-26T05:58:02;19.60;49.20
21355;DHT22;10835;50.148;19.760;2023-03-26T06:01:11;20.00;48.90
21355;DHT22;10835;50.148;19.760;2023-03-26T06:04:03;20.20;48.80
21355;DHT22;10835;50.148;19.760;2023-03-26T06:06:37;20.10;48.40
21355;DHT22;10835;50.148;19.760;2023-03-26T06:09:07;19.60;49.30
21355;DHT22;10835;50.148;19.760;2023-03-26T06:11:35;19.50;48.90
21355;DHT22;10835;50.148;19.760;2023-03-26T06:14:05;19.30;49.40
21355;DHT22;10835;50.148;19.760;2023-03-26T06:16:36;19.20;50.10
21355;DHT22;10835;50.148;19.760;2023-03-26T06:19:15;19.20;49.80
21355;DHT22;10835;50.148;19.760;2023-03-26T06:21:49;19.40;49.70
21355;DHT22;10835;50.148;19.760;2023-03-26T06:24:22;18.90;50.10
21355;DHT22;10835;50.148;19.760;2023-03-26T06:27:05;18.80;50.30
21355;DHT22;10835;50.148;19.760;2023-03-26T06:30:12;18.10;51.00
21355;DHT22;10835;50.148;19.760;2023-03-26T06:32:52;18.30;51.80
21355;DHT22;10835;50.148;19.760;2023-03-26T06:35:24;18.30;51.00
21355;DHT22;10835;50.148;19.760;2023-03-26T06:37:52;17.80;52.20
21355;DHT22;10835;50.148;19.760;2023-03-26T06:40:22;17.80;52.40
21355;DHT22;10835;50.148;19.760;2023-03-26T06:43:16;17.40;52.60
21355;DHT22;10835;50.148;19.760;2023-03-26T06:45:49;17.30;52.50
21355;DHT22;10835;50.148;19.760;2023-03-26T06:48:36;17.30;52.60
21355;DHT22;10835;50.148;19.760;2023-03-26T06:51:19;16.90;53.40
21355;DHT22;10835;50.148;19.760;2023-03-26T06:54:10;16.70;52.80
21355;DHT22;10835;50.148;19.760;2023-03-26T06:56:55;16.50;54.20
21355;DHT22;10835;50.148;19.760;2023-03-26T06:59:39;16.70;53.40
21355;DHT22;10835;50.148;19.760;2023-03-26T07:02:27;17.30;52.50
21355;DHT22;10835;50.148;19.760;2023-03-26T07:05:13;17.30;53.10
21355;DHT22;10835;50.148;19.760;2023-03-26T07:08:14;17.10;53.00
21355;DHT22;10835;50.148;19.760;2023-03-26T07:11:01;16.60;54.10
21355;DHT22;10835;50.148;19.760;2023-03-26T07:13:49;16.60;54.70
21355;DHT22;10835;50.148;19.760;2023-03-26T07:16:49;16.60;54.20
21355;DHT22;10835;50.148;19.760;2023-03-26T07:19:45;16.80;55.20
21355;DHT22;10835;50.148;19.760;2023-03-26T07:22:20;16.80;54.30
21355;DHT22;10835;50.148;19.760;2023-03-26T07:25:04;16.60;54.30
21355;DHT22;10835;50.148;19.760;2023-03-26T07:27:59;16.60;54.30
21355;DHT22;10835;50.148;19.760;2023-03-26T07:31:06;16.60;54.30
21355;DHT22;10835;50.148;19.760;2023-03-26T07:33:51;16.90;53.90
21355;DHT22;10835;50.148;19.760;2023-03-26T07:36:43;16.90;53.40
21355;DHT22;10835;50.148;19.760;2023-03-26T07:39:41;16.80;55.00
21355;DHT22;10835;50.148;19.760;2023-03-26T07:42:29;17.20;54.00
21355;DHT22;10835;50.148;19.760;2023-03-26T07:45:38;17.60;53.20
21355;DHT22;10835;50.148;19.760;2023-03-26T07:48:21;17.80;52.70
21355;DHT22;10835;50.148;19.760;2023-03-26T07:51:07;18.30;52.40
21355;DHT22;10835;50.148;19.760;2023-03-26T07:53:56;18.20;50.80
21355;DHT22;10835;50.148;19.760;2023-03-26T07:57:09;18.20;50.90
21355;DHT22;10835;50.148;19.760;2023-03-26T07:59:51;18.00;51.20
21355;DHT22;10835;50.148;19.760;2023-03-26T08:06:21;17.70;50.70
21355;DHT22;10835;50.148;19.760;2023-03-26T08:09:10;17.30;52.40
21355;DHT22;10835;50.148;19.760;2023-03-26T08:11:53;17.10;52.40
21355;DHT22;10835;50.148;19.760;2023-03-26T08:14:33;17.10;52.70
21355;DHT22;10835;50.148;19.760;2023-03-26T08:17:10;17.60;52.60
21355;DHT22;10835;50.148;19.760;2023-03-26T08:19:49;17.70;51.80
21355;DHT22;10835;50.148;19.760;2023-03-26T08:22:27;17.40;52.20
21355;DHT22;10835;50.148;19.760;2023-03-26T08:25:07;17.60;52.10
21355;DHT22;10835;50.148;19.760;2023-03-26T08:27:39;17.60;52.00
21355;DHT22;10835;50.148;19.760;2023-03-26T08:30:14;17.60;51.70
21355;DHT22;10835;50.148;19.760;2023-03-26T08:32:48;18.00;51.70
21355;DHT22;10835;50.148;19.760;2023-03-26T08:35:19;18.10;50.50
21355;DHT22;10835;50.148;19.760;2023-03-26T08:37:49;18.10;50.20
21355;DHT22;10835;50.148;19.760;2023-03-26T08:40:28;17.80;51.00
21355;DHT22;10835;50.148;19.760;2023-03-26T08:43:25;17.30;51.20
21355;DHT22;10835;50.148;19.760;2023-03-26T08:46:28;17.40;52.00
21355;DHT22;10835;50.148;19.760;2023-03-26T08:49:32;17.60;51.00
21355;DHT22;10835;50.148;19.760;2023-03-26T08:52:57;17.90;51.30
21355;DHT22;10835;50.148;19.760;2023-03-26T08:55:41;17.90;50.90
21355;DHT22;10835;50.148;19.760;2023-03-26T08:58:44;17.90;50.90
21355;DHT22;10835;50.148;19.760;2023-03-26T09:04:44;18.20;49.70
21355;DHT22;10835;50.148;19.760;2023-03-26T09:10:53;18.50;50.70
21355;DHT22;10835;50.148;19.760;2023-03-26T09:17:02;18.30;48.60
21355;DHT22;10835;50.148;19.760;2023-03-26T09:20:06;18.30;48.40
21355;DHT22;10835;50.148;19.760;2023-03-26T09:26:01;18.10;47.50
21355;DHT22;10835;50.148;19.760;2023-03-26T09:35:13;17.80;48.20
21355;DHT22;10835;50.148;19.760;2023-03-26T09:37:53;17.80;47.80
21355;DHT22;10835;50.148;19.760;2023-03-26T09:40:34;18.10;47.90
21355;DHT22;10835;50.148;19.760;2023-03-26T09:43:34;18.50;47.40
21355;DHT22;10835;50.148;19.760;2023-03-26T09:46:20;18.40;47.60
21355;DHT22;10835;50.148;19.760;2023-03-26T09:52:02;18.90;47.10
21355;DHT22;10835;50.148;19.760;2023-03-26T09:55:07;18.90;45.80
21355;DHT22;10835;50.148;19.760;2023-03-26T10:00:48;18.80;46.90
21355;DHT22;10835;50.148;19.760;2023-03-26T10:03:35;18.70;46.20
21355;DHT22;10835;50.148;19.760;2023-03-26T10:06:19;18.60;46.90
21355;DHT22;10835;50.148;19.760;2023-03-26T10:09:00;19.00;47.00
21355;DHT22;10835;50.148;19.760;2023-03-26T10:11:51;18.80;47.30
21355;DHT22;10835;50.148;19.760;2023-03-26T10:14:25;19.10;47.50
21355;DHT22;10835;50.148;19.760;2023-03-26T10:17:05;19.30;46.90
21355;DHT22;10835;50.148;19.760;2023-03-26T10:19:48;19.60;46.80
21355;DHT22;10835;50.148;19.760;2023-03-26T10:22:30;19.30;46.80
21355;DHT22;10835;50.148;19.760;2023-03-26T10:25:28;19.50;46.20
21355;DHT22;10835;50.148;19.760;2023-03-26T10:28:17;19.40;46.50
21355;DHT22;10835;50.148;19.760;2023-03-26T10:31:19;19.30;47.10
21355;DHT22;10835;50.148;19.760;2023-03-26T10:33:59;19.70;47.00
21355;DHT22;10835;50.148;19.760;2023-03-26T10:36:34;20.20;47.10
21355;DHT22;10835;50.148;19.760;2023-03-26T10:39:29;20.10;46.10
21355;DHT22;10835;50.148;19.760;2023-03-26T10:42:23;20.10;45.40
21355;DHT22;10835;50.148;19.760;2023-03-26T10:45:12;20.50;45.60
21355;DHT22;10835;50.148;19.760;2023-03-26T10:50:53;20.20;43.70
21355;DHT22;10835;50.148;19.760;2023-03-26T10:53:30;20.00;45.30
21355;DHT22;10835;50.148;19.760;2023-03-26T10:56:05;20.00;45.80
21355;DHT22;10835;50.148;19.760;2023-03-26T10:58:36;20.30;45.30
21355;DHT22;10835;50.148;19.760;2023-03-26T11:01:23;20.20;44.80
21355;DHT22;10835;50.148;19.760;2023-03-26T11:03:58;20.40;44.80
21355;DHT22;10835;50.148;19.760;2023-03-26T11:06:36;20.30;44.50
21355;DHT22;10835;50.148;19.760;2023-03-26T11:09:20;20.60;44.40
21355;DHT22;10835;50.148;19.760;2023-03-26T11:11:55;20.20;44.10
21355;DHT22;10835;50.148;19.760;2023-03-26T11:14:30;19.80;45.60
21355;DHT22;10835;50.148;19.760;2023-03-26T11:17:08;20.00;46.20
21355;DHT22;10835;50.148;19.760;2023-03-26T11:20:03;19.80;46.80
21355;DHT22;10835;50.148;19.760;2023-03-26T11:22:45;19.90;46.50
21355;DHT22;10835;50.148;19.760;2023-03-26T11:25:39;20.10;45.90
21355;DHT22;10835;50.148;19.760;2023-03-26T11:28:24;20.10;46.20
21355;DHT22;10835;50.148;19.760;2023-03-26T11:30:57;20.30;45.60
21355;DHT22;10835;50.148;19.760;2023-03-26T11:33:31;19.90;46.80
21355;DHT22;10835;50.148;19.760;2023-03-26T11:36:05;19.00;49.40
21355;DHT22;10835;50.148;19.760;2023-03-26T11:38:37;19.10;50.60
21355;DHT22;10835;50.148;19.760;2023-03-26T11:41:14;19.20;50.70
21355;DHT22;10835;50.148;19.760;2023-03-26T11:44:18;19.70;50.60
21355;DHT22;10835;50.148;19.760;2023-03-26T11:46:50;20.00;50.00
21355;DHT22;10835;50.148;19.760;2023-03-26T11:49:21;20.80;50.90
21355;DHT22;10835;50.148;19.760;2023-03-26T11:51:50;20.70;49.80
21355;DHT22;10835;50.148;19.760;2023-03-26T11:54:22;21.20;48.60
21355;DHT22;10835;50.148;19.760;2023-03-26T11:56:54;21.20;47.30
21355;DHT22;10835;50.148;19.760;2023-03-26T11:59:34;21.40;48.10
21355;DHT22;10835;50.148;19.760;2023-03-26T12:02:26;21.70;47.00
21355;DHT22;10835;50.148;19.760;2023-03-26T12:05:13;21.80;46.80
21355;DHT22;10835;50.148;19.760;2023-03-26T12:07:45;21.40;47.30
21355;DHT22;10835;50.148;19.760;2023-03-26T12:10:24;21.10;47.60
21355;DHT22;10835;50.148;19.760;2023-03-26T12:12:55;21.40;46.60
21355;DHT22;10835;50.148;19.760;2023-03-26T12:15:27;21.50;46.70
21355;DHT22;10835;50.148;19.760;2023-03-26T12:17:57;21.30;46.80
21355;DHT22;10835;50.148;19.760;2023-03-26T12:20:32;20.70;47.50
21355;DHT22;10835;50.148;19.760;2023-03-26T12:23:04;20.50;48.30
21355;DHT22;10835;50.148;19.760;2023-03-26T12:25:35;20.50;48.90
21355;DHT22;10835;50.148;19.760;2023-03-26T12:28:15;19.90;47.90
21355;DHT22;10835;50.148;19.760;2023-03-26T12:30:51;19.30;48.90
21355;DHT22;10835;50.148;19.760;2023-03-26T12:33:24;19.40;50.10
21355;DHT22;10835;50.148;19.760;2023-03-26T12:35:55;19.50;50.60
21355;DHT22;10835;50.148;19.760;2023-03-26T12:38:31;19.70;49.00
21355;DHT22;10835;50.148;19.760;2023-03-26T12:41:07;19.80;48.30
21355;DHT22;10835;50.148;19.760;2023-03-26T12:43:56;19.90;49.10
21355;DHT22;10835;50.148;19.760;2023-03-26T12:46:44;20.50;48.20
21355;DHT22;10835;50.148;19.760;2023-03-26T12:49:33;20.80;48.30
21355;DHT22;10835;50.148;19.760;2023-03-26T12:52:08;20.70;47.40
21355;DHT22;10835;50.148;19.760;2023-03-26T12:54:45;20.80;47.00
21355;DHT22;10835;50.148;19.760;2023-03-26T12:57:22;21.10;46.70
21355;DHT22;10835;50.148;19.760;2023-03-26T13:00:12;21.00;44.80
21355;DHT22;10835;50.148;19.760;2023-03-26T13:03:05;21.00;45.40
21355;DHT22;10835;50.148;19.760;2023-03-26T13:05:48;20.90;45.60
21355;DHT22;10835;50.148;19.760;2023-03-26T13:11:25;20.70;45.00
21355;DHT22;10835;50.148;19.760;2023-03-26T13:14:14;20.30;45.30
21355;DHT22;10835;50.148;19.760;2023-03-26T13:16:52;20.60;43.90
21355;DHT22;10835;50.148;19.760;2023-03-26T13:19:27;21.10;44.60
21355;DHT22;10835;50.148;19.760;2023-03-26T13:22:08;21.30;45.90
21355;DHT22;10835;50.148;19.760;2023-03-26T13:24:46;21.30;44.30
21355;DHT22;10835;50.148;19.760;2023-03-26T13:27:33;21.10;42.40
21355;DHT22;10835;50.148;19.760;2023-03-26T13:30:14;21.20;44.10
21355;DHT22;10835;50.148;19.760;2023-03-26T13:32:57;21.90;42.10
21355;DHT22;10835;50.148;19.760;2023-03-26T13:35:35;22.10;42.40
21355;DHT22;10835;50.148;19.760;2023-03-26T13:38:11;22.00;42.30
21355;DHT22;10835;50.148;19.760;2023-03-26T13:40:49;22.10;41.40
21355;DHT22;10835;50.148;19.760;2023-03-26T13:43:34;21.90;41.30
21355;DHT22;10835;50.148;19.760;2023-03-26T13:46:13;21.80;42.40
21355;DHT22;10835;50.148;19.760;2023-03-26T13:48:49;21.80;41.90
21355;DHT22;10835;50.148;19.760;2023-03-26T13:51:23;21.80;42.80
21355;DHT22;10835;50.148;19.760;2023-03-26T13:53:57;21.90;42.60
21355;DHT22;10835;50.148;19.760;2023-03-26T13:56:31;22.00;41.90
21355;DHT22;10835;50.148;19.760;2023-03-26T13:59:05;22.00;40.70
21355;DHT22;10835;50.148;19.760;2023-03-26T14:01:43;21.70;40.50
21355;DHT22;10835;50.148;19.760;2023-03-26T14:04:23;21.30;41.00
21355;DHT22;10835;50.148;19.760;2023-03-26T14:06:57;21.10;41.70
21355;DHT22;10835;50.148;19.760;2023-03-26T14:09:30;21.10;41.80
21355;DHT22;10835;50.148;19.760;2023-03-26T14:12:20;21.00;40.70
21355;DHT22;10835;50.148;19.760;2023-03-26T14:14:54;20.90;41.00
21355;DHT22;10835;50.148;19.760;2023-03-26T14:17:31;21.00;41.10
21355;DHT22;10835;50.148;19.760;2023-03-26T14:20:22;20.90;41.70
21355;DHT22;10835;50.148;19.760;2023-03-26T14:23:01;20.90;41.60
21355;DHT22;10835;50.148;19.760;2023-03-26T14:25:41;20.60;40.10
21355;DHT22;10835;50.148;19.760;2023-03-26T14:28:39;20.60;40.90
21355;DHT22;10835;50.148;19.760;2023-03-26T14:31:16;20.70;40.90
21355;DHT22;10835;50.148;19.760;2023-03-26T14:33:58;20.80;40.70
21355;DHT22;10835;50.148;19.760;2023-03-26T14:36:45;20.60;40.90
21355;DHT22;10835;50.148;19.760;2023-03-26T14:42:42;20.40;41.10
21355;DHT22;10835;50.148;19.760;2023-03-26T14:51:26;21.30;41.80
21355;DHT22;10835;50.148;19.760;2023-03-26T14:53:59;21.80;40.80
21355;DHT22;10835;50.148;19.760;2023-03-26T14:56:48;22.50;39.80
21355;DHT22;10835;50.148;19.760;2023-03-26T14:59:51;23.10;39.60
21355;DHT22;10835;50.148;19.760;2023-03-26T15:05:53;23.20;38.60
21355;DHT22;10835;50.148;19.760;2023-03-26T15:09:14;23.40;38.70
21355;DHT22;10835;50.148;19.760;2023-03-26T15:12:00;23.20;36.90
21355;DHT22;10835;50.148;19.760;2023-03-26T15:18:04;22.70;38.10
21355;DHT22;10835;50.148;19.760;2023-03-26T15:24:26;21.80;39.40
21355;DHT22;10835;50.148;19.760;2023-03-26T15:27:22;21.80;39.00
21355;DHT22;10835;50.148;19.760;2023-03-26T15:39:48;22.40;40.00
21355;DHT22;10835;50.148;19.760;2023-03-26T15:42:35;22.80;38.60
21355;DHT22;10835;50.148;19.760;2023-03-26T15:45:34;22.80;38.60
21355;DHT22;10835;50.148;19.760;2023-03-26T15:51:15;23.20;38.50
21355;DHT22;10835;50.148;19.760;2023-03-26T15:53:53;23.00;38.70
21355;DHT22;10835;50.148;19.760;2023-03-26T15:56:49;23.20;38.40
21355;DHT22;10835;50.148;19.760;2023-03-26T15:59:31;23.30;38.30
21355;DHT22;10835;50.148;19.760;2023-03-26T16:02:13;23.30;37.50
21355;DHT22;10835;50.148;19.760;2023-03-26T16:04:48;23.40;38.10
21355;DHT22;10835;50.148;19.760;2023-03-26T16:07:39;23.80;37.50
21355;DHT22;10835;50.148;19.760;2023-03-26T16:10:24;23.90;37.00
21355;DHT22;10835;50.148;19.760;2023-03-26T16:13:27;23.70;37.20
21355;DHT22;10835;50.148;19.760;2023-03-26T16:16:23;23.70;36.70
21355;DHT22;10835;50.148;19.760;2023-03-26T16:18:55;24.50;36.60
21355;DHT22;10835;50.148;19.760;2023-03-26T16:21:38;24.90;35.80
21355;DHT22;10835;50.148;19.760;2023-03-26T16:24:19;24.90;34.80
21355;DHT22;10835;50.148;19.760;2023-03-26T16:26:59;25.10;35.40
21355;DHT22;10835;50.148;19.760;2023-03-26T16:29:30;24.90;34.70
21355;DHT22;10835;50.148;19.760;2023-03-26T16:32:16;25.10;35.30
21355;DHT22;10835;50.148;19.760;2023-03-26T16:34:55;25.20;34.50
21355;DHT22;10835;50.148;19.760;2023-03-26T16:37:35;25.10;34.30
21355;DHT22;10835;50.148;19.760;2023-03-26T16:40:27;25.30;34.30
21355;DHT22;10835;50.148;19.760;2023-03-26T16:43:05;25.20;35.60
21355;DHT22;10835;50.148;19.760;2023-03-26T16:45:46;25.60;35.40
21355;DHT22;10835;50.148;19.760;2023-03-26T16:48:24;25.70;35.80
21355;DHT22;10835;50.148;19.760;2023-03-26T16:50:57;26.00;35.70
21355;DHT22;10835;50.148;19.760;2023-03-26T16:53:36;25.90;35.60
21355;DHT22;10835;50.148;19.760;2023-03-26T16:56:14;25.80;35.50
21355;DHT22;10835;50.148;19.760;2023-03-26T16:58:52;25.70;35.70
21355;DHT22;10835;50.148;19.760;2023-03-26T17:01:31;25.10;35.70
21355;DHT22;10835;50.148;19.760;2023-03-26T17:04:04;25.10;36.50
21355;DHT22;10835;50.148;19.760;2023-03-26T17:06:56;25.10;37.00
21355;DHT22;10835;50.148;19.760;2023-03-26T17:09:45;25.20;37.80
21355;DHT22;10835;50.148;19.760;2023-03-26T17:12:24;24.90;37.30
21355;DHT22;10835;50.148;19.760;2023-03-26T17:15:03;24.60;37.50
21355;DHT22;10835;50.148;19.760;2023-03-26T17:17:45;24.20;37.90
21355;DHT22;10835;50.148;19.760;2023-03-26T17:20:31;24.20;38.10
21355;DHT22;10835;50.148;19.760;2023-03-26T17:23:20;23.80;38.20
21355;DHT22;10835;50.148;19.760;2023-03-26T17:25:59;23.50;38.60
21355;DHT22;10835;50.148;19.760;2023-03-26T17:28:48;23.50;39.30
21355;DHT22;10835;50.148;19.760;2023-03-26T17:31:24;23.20;39.40
21355;DHT22;10835;50.148;19.760;2023-03-26T17:34:32;23.30;39.60
21355;DHT22;10835;50.148;19.760;2023-03-26T17:37:03;23.10;39.60
21355;DHT22;10835;50.148;19.760;2023-03-26T17:42:35;23.00;39.50
21355;DHT22;10835;50.148;19.760;2023-03-26T17:45:07;22.90;39.90
21355;DHT22;10835;50.148;19.760;2023-03-26T17:47:38;22.80;39.80